Terminal Aerodrome Forecast
Issued by NWS

Home | Current Version | Previous Version | Text Only | Print | Product List | Glossary On
Versions: 1 2 3 4 5 6 7 8 9 10 11 12 13 14 15 16 17 18 19 20 21 22 23 24 25 26 27 28 29 30 31 32 33
000
FTUS43 KGRB 190500
TAFRHI
TAF
KRHI 190530Z 1906/2006 30003KT P6SM SCT250
     FM191000 VRB03KT 5SM BR OVC012
     FM191500 19003KT 6SM BR BKN015
     FM192100 20002KT P6SM SCT015 OVC100
     FM200200 20002KT 6SM BR BKN012=

USA.gov is the U.S. government's official web portal to all federal, state and local government web resources and services.